< Cyclone 199109 1991 Season Cyclone 199201 >
Cyclone 199110 (LISA)
General InformationTrack Information on Google MapsDetailed Wind InformationList of All Images || ResourceGoogle EarthGE AnimationAtom FeedGeoJSON
Detalied Best Track (Time Zone = UTC)
Year Month Day Hour Lat. Long. Pressure (hPa) Wind (kt) Class Image Chart
1991 5 7 00 -5.9 155.0 1004 31 2 Image --
1991 5 7 06 -6.9 155.0 1000 31 2 Image --
1991 5 7 12 -7.9 155.2 998 35 3 Image --
1991 5 7 18 -8.8 155.3 996 37 3 Image --
1991 5 8 00 -9.7 155.0 995 41 3 Image --
1991 5 8 06 -10.3 154.4 995 35 3 Image --
1991 5 8 12 -10.9 154.0 990 45 3 Image --
1991 5 8 18 -11.9 153.9 990 45 3 Image --
1991 5 9 00 -12.9 154.1 990 45 3 Image --
1991 5 9 06 -13.3 154.3 984 51 4 Image --
1991 5 9 12 -13.7 154.5 983 51 4 Image --
1991 5 9 18 -14.3 155.0 982 51 4 Image --
1991 5 10 00 -15.1 155.7 978 60 4 Image --
1991 5 10 06 -15.5 156.1 975 60 4 Image --
1991 5 10 12 -15.9 157.0 975 60 4 Image --
1991 5 10 18 -16.1 158.2 975 60 4 Image --
1991 5 11 00 -16.8 159.1 975 60 4 Image --
1991 5 11 06 -17.4 160.0 975 60 4 Image --
1991 5 11 12 -17.8 161.1 980 60 4 Image --
1991 5 11 18 -17.9 162.4 990 60 4 Image --
1991 5 12 00 -18.1 163.8 992 51 4 Image --
1991 5 12 06 -18.5 165.2 994 41 3 Image --
1991 5 12 12 -19.0 167.1 998 35 3 Image --
1991 5 12 18 -19.9 169.4 1002 35 3 Image --
< Cyclone 199109 1991 Season Cyclone 199201 >

Help